Ayersville, North Carolina
Current Conditions -  °F | °C
As of 1:15 PM on Thursday 27 Nov 2014 (Local Time) from KSIF Reporting Station
Broken Clouds Broken Clouds  
Wind Chill: 43°   Ceiling: 5500
Heat Index: 47°   Visibility: 10mi
Dew Point: 35°   Wind: 8mph
Humidity: 63%   Direction: 310°NW
Pressure: 30.08"   Gusts: NA
Location:  36.4479°N, 79.9473°W
Report Text: KSIF 271815Z AUTO 31007KT 260V330 10SM BKN055 08/02 A3008 RMK AO2 P0001 T00830016
Loading
Personal Weather Stations






























Interactive Weather Map New forecast layout! Learn more

10-Day Weather Forecast

Advertisements
Track Severe Weather on mobile